createdAt,value
2018-02-17T12:13:21.946Z,17.76
2018-02-17T12:16:23.828Z,17.77
2018-02-17T12:19:25.704Z,17.76
2018-02-17T12:22:27.587Z,17.72
2018-02-17T12:25:29.455Z,17.69
2018-02-17T12:47:06.253Z,5.11
2018-02-17T12:50:08.200Z,4.58
2018-02-17T12:53:10.172Z,4.39
2018-02-17T12:56:12.195Z,3.99
2018-02-17T12:59:14.243Z,4.00
2018-02-17T13:02:16.173Z,3.87
2018-02-17T13:05:18.919Z,3.81
2018-02-17T13:08:20.942Z,3.70
2018-02-17T13:11:22.986Z,3.57
2018-02-17T13:14:24.955Z,3.63
2018-02-17T13:17:26.934Z,3.48
2018-02-17T13:20:28.848Z,3.62
2018-02-17T13:23:31.003Z,3.62
2018-02-17T13:26:33.032Z,3.49
2018-02-17T13:29:35.010Z,3.43
2018-02-17T13:32:36.989Z,3.48
2018-02-17T13:35:38.923Z,3.51
2018-02-17T13:38:40.995Z,3.53
2018-02-17T13:41:43.027Z,3.54
2018-02-17T13:44:45.030Z,3.47
2018-02-17T13:47:47.001Z,3.58
2018-02-17T13:50:48.952Z,3.68
2018-02-17T13:53:50.949Z,3.69
2018-02-17T13:56:52.894Z,3.64
2018-02-17T13:59:54.842Z,3.73
2018-02-17T14:02:57.358Z,3.86
2018-02-17T14:05:59.302Z,3.85
2018-02-17T14:09:01.714Z,3.94
2018-02-17T14:12:03.682Z,4.01
2018-02-17T14:15:05.687Z,4.13
2018-02-17T14:18:07.711Z,4.18
2018-02-17T14:21:09.649Z,4.10
2018-02-17T14:24:11.614Z,4.11
2018-02-17T14:27:13.690Z,4.11
2018-02-17T14:30:15.647Z,4.15
2018-02-17T14:33:17.615Z,4.10
2018-02-17T14:36:19.582Z,4.16
2018-02-17T14:39:21.564Z,4.26
2018-02-17T14:42:23.542Z,4.19
2018-02-17T14:45:25.509Z,4.26
2018-02-17T14:48:27.466Z,4.07
2018-02-17T14:51:29.557Z,3.92
2018-02-17T14:54:31.481Z,3.91
2018-02-17T14:57:33.470Z,3.93
2018-02-17T15:00:35.404Z,3.87
2018-02-17T15:03:37.400Z,3.82
2018-02-17T15:06:39.364Z,3.80
2018-02-17T15:09:41.398Z,4.01
2018-02-17T15:12:43.594Z,3.92
2018-02-17T15:15:45.535Z,3.82
2018-02-17T15:18:47.522Z,3.92
2018-02-17T15:21:49.486Z,3.91
2018-02-17T15:24:51.569Z,3.88
2018-02-17T15:27:53.627Z,3.84
2018-02-17T15:30:55.669Z,3.85
2018-02-17T15:33:57.634Z,3.93
2018-02-17T15:36:59.793Z,3.79
2018-02-17T15:40:01.842Z,3.82
2018-02-17T15:43:03.837Z,3.79
2018-02-17T15:46:05.884Z,3.78
2018-02-17T15:49:07.974Z,3.77
2018-02-17T15:52:09.985Z,3.89
2018-02-17T15:55:12.015Z,3.79
2018-02-17T15:58:13.964Z,3.80
2018-02-17T16:01:16.154Z,3.53
2018-02-17T16:04:18.190Z,3.65
2018-02-17T16:07:20.243Z,3.43
2018-02-17T16:10:22.179Z,3.38
2018-02-17T16:13:24.264Z,3.26
2018-02-17T16:16:26.203Z,3.29
2018-02-17T16:19:28.301Z,3.36
2018-02-17T16:22:30.244Z,3.41
2018-02-17T16:25:32.372Z,3.50
2018-02-17T16:28:34.397Z,3.43
2018-02-17T16:31:36.463Z,3.39
2018-02-17T16:34:38.529Z,3.41
2018-02-17T16:37:40.594Z,3.55
2018-02-17T16:40:42.548Z,3.61
2018-02-17T16:43:44.594Z,3.64
2018-02-17T16:46:46.532Z,3.73
2018-02-17T16:49:48.782Z,3.79
2018-02-17T16:52:50.724Z,3.86
2018-02-17T16:55:52.802Z,3.90
2018-02-17T16:58:54.714Z,3.90
2018-02-17T17:01:56.813Z,3.88
2018-02-17T17:04:58.823Z,3.87
2018-02-17T17:08:00.881Z,3.90
2018-02-17T17:11:02.893Z,4.06
2018-02-17T17:14:04.887Z,4.09
2018-02-17T17:17:06.851Z,4.01
2018-02-17T17:20:09.472Z,4.07
2018-02-17T17:23:11.413Z,4.19
2018-02-17T17:26:13.474Z,4.31
2018-02-17T17:29:15.522Z,4.01
2018-02-17T17:32:17.689Z,4.08
2018-02-17T17:35:19.813Z,4.14
2018-02-17T17:38:21.782Z,4.22
2018-02-17T17:41:23.833Z,4.26
2018-02-17T17:44:25.812Z,4.29
2018-02-17T17:47:27.795Z,4.24
2018-02-17T17:50:29.710Z,4.23
2018-02-17T17:53:31.784Z,4.29
2018-02-17T17:56:33.895Z,4.28
2018-02-17T17:59:35.885Z,4.16
2018-02-17T18:02:37.987Z,4.07
2018-02-17T18:05:40.022Z,4.09
2018-02-17T18:08:41.968Z,4.02
2018-02-17T18:11:44.037Z,4.12
2018-02-17T18:14:46.080Z,4.10
2018-02-17T18:17:48.050Z,4.13
2018-02-17T18:20:49.975Z,4.15
2018-02-17T18:23:52.189Z,4.12
2018-02-17T18:26:54.165Z,4.06
2018-02-17T18:29:56.186Z,4.03
2018-02-17T18:32:58.160Z,3.98
2018-02-17T18:36:00.316Z,3.88
2018-02-17T18:39:02.330Z,3.93
2018-02-17T18:42:04.497Z,3.85
2018-02-17T18:45:06.450Z,3.50
2018-02-17T18:48:08.596Z,3.69
2018-02-17T18:51:10.592Z,3.71
2018-02-17T18:54:12.699Z,3.74
2018-02-17T18:57:14.722Z,3.80
2018-02-17T19:00:16.689Z,3.64
2018-02-17T19:03:18.703Z,3.59
2018-02-17T19:06:20.662Z,3.59
2018-02-17T19:09:22.814Z,3.68
2018-02-17T19:12:24.779Z,3.81
2018-02-17T19:15:26.736Z,3.67
2018-02-17T19:18:28.802Z,3.64
2018-02-17T19:21:30.774Z,3.76
2018-02-17T19:24:32.861Z,3.91
2018-02-17T19:27:34.906Z,3.88
2018-02-17T19:30:36.879Z,3.89
2018-02-17T19:33:39.183Z,3.76
2018-02-17T19:36:41.237Z,3.67
2018-02-17T19:39:43.172Z,3.63
2018-02-17T19:42:45.140Z,3.61
2018-02-17T19:45:47.222Z,3.63
2018-02-17T19:48:49.281Z,3.60
2018-02-17T19:51:51.471Z,3.62
2018-02-17T19:54:53.412Z,3.51
2018-02-17T19:57:55.413Z,3.40
2018-02-17T20:00:57.360Z,3.44
2018-02-17T20:04:00.357Z,3.31
2018-02-17T20:07:02.366Z,3.26
2018-02-17T20:10:04.537Z,3.32
2018-02-17T20:13:06.648Z,3.42
2018-02-17T20:16:08.694Z,3.51
2018-02-17T20:19:10.696Z,3.63
2018-02-17T20:22:12.692Z,3.62
2018-02-17T20:25:14.746Z,3.63
2018-02-17T20:28:16.701Z,3.67
2018-02-17T20:31:18.775Z,3.57
2018-02-17T20:34:20.714Z,3.48
2018-02-17T20:37:22.667Z,3.35
2018-02-17T20:40:24.623Z,3.32
2018-02-17T20:43:26.741Z,3.40
2018-02-17T20:46:28.785Z,3.40
2018-02-17T20:49:30.704Z,3.30
2018-02-17T20:52:32.870Z,3.34
2018-02-17T20:55:34.899Z,3.24
2018-02-17T20:58:36.938Z,3.42
2018-02-17T21:01:39.022Z,3.44
2018-02-17T21:04:40.995Z,3.27
2018-02-17T21:07:42.968Z,3.29
2018-02-17T21:10:45.002Z,3.39
2018-02-17T21:13:47.017Z,3.41
2018-02-17T21:16:48.973Z,3.40
2018-02-17T21:19:51.032Z,3.35
2018-02-17T21:22:53.114Z,3.28
2018-02-17T21:25:55.191Z,3.29
2018-02-17T21:28:57.200Z,3.29
2018-02-17T21:31:59.231Z,3.27
2018-02-17T21:35:01.204Z,3.24
2018-02-17T21:38:03.148Z,3.16
2018-02-17T21:41:05.132Z,2.88
2018-02-17T21:44:07.062Z,2.79
2018-02-17T21:47:09.061Z,2.68
2018-02-17T21:50:11.033Z,2.77
2018-02-17T21:53:13.029Z,2.93
2018-02-17T21:56:15.056Z,3.04
2018-02-17T21:59:17.014Z,3.17
2018-02-17T22:02:19.266Z,3.27
2018-02-17T22:05:21.296Z,3.25
2018-02-17T22:08:23.219Z,3.28
2018-02-17T22:11:25.185Z,3.26
2018-02-17T22:14:27.177Z,3.17
2018-02-17T22:17:29.107Z,3.14
2018-02-17T22:20:31.042Z,3.08
2018-02-17T22:23:33.267Z,3.15
2018-02-17T22:26:35.235Z,3.16
2018-02-17T22:29:37.524Z,3.07
2018-02-17T22:32:39.691Z,2.91
2018-02-17T22:35:43.025Z,2.84
2018-02-17T22:38:45.358Z,2.88
2018-02-17T22:41:47.316Z,2.65
2018-02-17T22:44:49.250Z,2.73
2018-02-17T22:47:51.260Z,2.66
2018-02-17T22:50:53.207Z,2.62
2018-02-17T22:53:55.279Z,2.56
2018-02-17T22:56:57.267Z,2.65
2018-02-17T22:59:59.214Z,2.79
2018-02-17T23:03:01.187Z,2.38
2018-02-17T23:06:03.353Z,2.38
2018-02-17T23:09:05.322Z,2.22
2018-02-17T23:12:07.244Z,2.16
2018-02-17T23:15:09.354Z,2.28
2018-02-17T23:18:11.362Z,2.42
2018-02-17T23:21:13.417Z,2.42
2018-02-17T23:24:15.448Z,2.12
2018-02-17T23:27:17.413Z,1.95
2018-02-17T23:30:19.489Z,1.79
2018-02-17T23:33:21.452Z,1.86
2018-02-17T23:36:23.422Z,1.93
2018-02-17T23:39:25.390Z,2.12
2018-02-17T23:42:27.355Z,2.13
2018-02-17T23:45:29.344Z,1.98
2018-02-17T23:48:31.314Z,2.04
2018-02-17T23:51:33.268Z,1.98
2018-02-17T23:54:35.212Z,2.01
2018-02-17T23:57:37.199Z,1.98
